Time;durP1;ratioP1;P1;durP2;ratioP2;P2;SDS_P1;SDS_P2;PMS_P1;PMS_P2;Temp;Humidity;BMP_temperature;BMP_pressure;BME280_temperature;BME280_humidity;BME280_pressure;Samples;Min_cycle;Max_cycle;Signal;HPM_P1;HPM_P2
2022/10/16 00:03:28;;;;;;;13.62;10.03;;;;;;;18.44;91.16;99286.35;4194124;82;28531;-91
2022/10/16 00:09:30;;;;;;;17.23;10.32;;;;;;;18.50;91.98;99286.59;4238631;82;28464;-90
2022/10/16 00:15:36;;;;;;;14.73;9.38;;;;;;;18.31;91.26;99294.55;4268550;82;28561;-90
2022/10/16 00:21:37;;;;;;;15.70;9.35;;;;;;;18.35;93.25;99298.90;4241887;82;28638;-92
2022/10/16 00:27:39;;;;;;;13.58;8.80;;;;;;;18.48;92.35;99309.73;4216072;82;28497;-93
2022/10/16 00:33:40;;;;;;;18.10;10.23;;;;;;;18.47;92.10;99306.73;4216455;82;28510;-89
2022/10/16 00:39:42;;;;;;;14.53;10.35;;;;;;;18.39;93.54;99310.32;4210948;82;28931;-90
2022/10/16 00:45:43;;;;;;;15.63;10.08;;;;;;;18.46;89.27;99316.00;4269216;82;28517;-90
2022/10/16 00:51:53;;;;;;;15.43;9.88;;;;;;;18.42;93.37;99329.91;4235732;82;28551;-93
2022/10/16 00:57:57;;;;;;;12.73;8.25;;;;;;;18.39;93.28;99333.98;4235543;82;28606;-91
2022/10/16 01:04:02;;;;;;;14.85;8.90;;;;;;;18.34;94.76;99329.94;4206743;82;28515;-92
2022/10/16 01:10:21;;;;;;;15.32;9.45;;;;;;;18.14;96.22;99332.95;4204024;82;28522;-92
2022/10/16 01:16:34;;;;;;;13.90;8.98;;;;;;;18.15;98.21;99328.31;4214911;82;28503;-92
2022/10/16 01:23:09;;;;;;;14.25;9.40;;;;;;;18.03;99.11;99331.31;4222723;83;28530;-92
2022/10/16 01:29:32;;;;;;;17.85;9.65;;;;;;;18.27;94.12;99333.48;4256732;82;28503;-94
2022/10/16 01:42:52;;;;;;;12.95;8.88;;;;;;;18.42;94.56;99332.06;4139155;82;28921;-94
2022/10/16 01:48:56;;;;;;;15.45;9.43;;;;;;;18.27;96.95;99341.08;4204635;83;28582;-91
2022/10/16 01:55:01;;;;;;;15.75;9.18;;;;;;;18.26;98.05;99346.25;4255615;82;28495;-92
2022/10/16 02:01:06;;;;;;;13.78;9.28;;;;;;;18.31;97.68;99346.79;4254593;82;28505;-86
2022/10/16 02:07:08;;;;;;;14.98;9.23;;;;;;;18.27;97.80;99349.24;4241574;82;28509;-93
2022/10/16 02:13:21;;;;;;;14.78;8.53;;;;;;;18.41;96.28;99352.21;4208210;82;28553;-87
2022/10/16 02:19:22;;;;;;;16.27;9.20;;;;;;;18.21;97.61;99351.16;4254241;82;28511;-87
2022/10/16 02:25:32;;;;;;;13.35;8.75;;;;;;;18.11;98.53;99357.44;4263962;82;28650;-88
2022/10/16 02:31:38;;;;;;;13.38;8.33;;;;;;;18.18;97.74;99353.63;4268303;82;28498;-82
2022/10/16 02:37:41;;;;;;;12.37;8.50;;;;;;;18.11;97.30;99349.28;4226463;82;28564;-83
2022/10/16 02:43:42;;;;;;;11.97;8.70;;;;;;;18.12;96.73;99356.91;4217502;82;28622;-82
2022/10/16 02:49:44;;;;;;;13.68;8.50;;;;;;;18.03;97.69;99350.35;4184154;83;28523;-82
2022/10/16 02:55:45;;;;;;;12.53;8.50;;;;;;;17.98;97.98;99351.17;4173662;83;28527;-81
2022/10/16 03:01:47;;;;;;;13.58;8.83;;;;;;;17.90;98.91;99357.95;4190029;83;28503;-85
2022/10/16 03:07:48;;;;;;;12.85;8.63;;;;;;;17.77;99.04;99362.58;4185741;83;28524;-86
2022/10/16 03:13:49;;;;;;;13.48;8.55;;;;;;;17.93;97.89;99362.03;4208767;83;28514;-84
2022/10/16 03:19:50;;;;;;;15.28;8.38;;;;;;;17.77;100.00;99358.50;4187079;83;28488;-84
2022/10/16 03:25:52;;;;;;;11.85;7.75;;;;;;;17.46;100.00;99357.10;4181518;83;28591;-81
2022/10/16 03:31:53;;;;;;;12.90;8.08;;;;;;;17.30;100.00;99359.80;4104257;85;28503;-81
2022/10/16 03:37:55;;;;;;;12.10;8.05;;;;;;;17.18;100.00;99365.99;4276062;81;28537;-81
2022/10/16 03:43:56;;;;;;;12.98;7.92;;;;;;;17.05;100.00;99375.48;4266960;82;28488;-80
2022/10/16 03:49:57;;;;;;;14.05;8.48;;;;;;;16.98;100.00;99391.44;4255913;81;28611;-81
2022/10/16 03:55:58;;;;;;;13.65;8.33;;;;;;;16.92;100.00;99395.23;4287234;81;28465;-81
2022/10/16 04:02:00;;;;;;;11.40;7.92;;;;;;;16.76;100.00;99406.52;4270007;81;28473;-81
2022/10/16 04:08:02;;;;;;;9.80;6.92;;;;;;;16.71;100.00;99411.94;4284923;81;28490;-81
2022/10/16 04:14:03;;;;;;;13.03;7.85;;;;;;;16.73;100.00;99411.12;4287510;82;28518;-82
2022/10/16 04:20:06;;;;;;;12.70;7.80;;;;;;;16.36;100.00;99425.00;4279861;82;28497;-87
2022/10/16 04:26:07;;;;;;;11.68;7.60;;;;;;;16.67;100.00;99423.06;4279211;82;28558;-90
2022/10/16 04:32:09;;;;;;;12.68;8.35;;;;;;;16.29;100.00;99423.05;4278584;82;28548;-86
2022/10/16 04:38:10;;;;;;;12.10;8.23;;;;;;;16.38;100.00;99422.84;4288469;82;28532;-83
2022/10/16 04:44:12;;;;;;;13.22;8.25;;;;;;;16.23;100.00;99428.17;4244046;83;28496;-83
2022/10/16 04:50:13;;;;;;;11.53;8.05;;;;;;;15.98;100.00;99417.37;4140764;84;28576;-86
2022/10/16 04:56:15;;;;;;;16.40;8.78;;;;;;;15.72;100.00;99431.50;4199944;83;28524;-85
2022/10/16 05:02:16;;;;;;;13.72;8.45;;;;;;;15.70;100.00;99432.81;4186704;83;28488;-80
2022/10/16 05:08:18;;;;;;;12.50;8.43;;;;;;;15.88;100.00;99439.24;4192389;83;28567;-81
2022/10/16 05:14:19;;;;;;;11.22;7.50;;;;;;;15.64;100.00;99430.59;4191547;83;28528;-81
2022/10/16 05:20:22;;;;;;;12.60;7.87;;;;;;;15.54;100.00;99435.35;4201856;83;28499;-81
2022/10/16 05:26:23;;;;;;;11.22;7.65;;;;;;;15.66;100.00;99435.73;4215904;83;28584;-81
2022/10/16 05:32:25;;;;;;;9.05;7.37;;;;;;;15.94;100.00;99435.23;4198389;82;28530;-81
2022/10/16 05:38:26;;;;;;;12.13;8.23;;;;;;;16.02;100.00;99447.78;4200252;83;28552;-82
2022/10/16 05:44:27;;;;;;;15.15;7.60;;;;;;;15.91;100.00;99463.67;4204734;83;28575;-84
2022/10/16 05:50:29;;;;;;;12.13;7.67;;;;;;;16.27;100.00;99445.03;4209209;82;28567;-84
2022/10/16 05:56:30;;;;;;;13.43;7.42;;;;;;;16.20;100.00;99449.84;4155740;83;28523;-82
2022/10/16 06:02:31;;;;;;;11.68;7.40;;;;;;;16.34;100.00;99457.02;4156182;83;28548;-83
2022/10/16 06:08:35;;;;;;;13.25;7.62;;;;;;;16.54;100.00;99456.89;4190826;83;28526;-84
2022/10/16 06:14:37;;;;;;;10.95;7.42;;;;;;;16.57;100.00;99461.80;4193899;82;28522;-80
2022/10/16 06:20:38;;;;;;;13.72;8.33;;;;;;;16.84;100.00;99475.83;4237787;82;28618;-81
2022/10/16 06:26:39;;;;;;;13.13;9.25;;;;;;;17.05;100.00;99483.56;4166459;83;28512;-81
2022/10/16 06:32:41;;;;;;;12.68;8.50;;;;;;;17.20;100.00;99498.34;4201153;83;28535;-81
2022/10/16 06:38:43;;;;;;;10.45;7.85;;;;;;;17.44;100.00;99508.20;4183454;83;28613;-80
2022/10/16 06:44:45;;;;;;;13.68;9.00;;;;;;;17.54;100.00;99512.33;4183622;82;28526;-81
2022/10/16 06:51:08;;;;;;;15.13;9.43;;;;;;;17.81;100.00;99518.70;4185254;83;28524;-80
2022/10/16 06:57:09;;;;;;;17.17;9.93;;;;;;;18.05;100.00;99520.95;4164619;82;28584;-81
2022/10/16 07:03:12;;;;;;;15.28;9.53;;;;;;;18.39;98.42;99534.05;4165775;83;28607;-78
2022/10/16 07:15:21;;;;;;;16.73;9.53;;;;;;;18.77;95.92;99544.67;4143345;83;28520;-88
2022/10/16 07:21:29;;;;;;;15.50;10.58;;;;;;;18.71;94.50;99533.53;4136555;84;28578;-80
2022/10/16 07:27:33;;;;;;;17.12;12.07;;;;;;;18.90;94.82;99533.77;4109880;84;28527;-77
2022/10/16 07:33:35;;;;;;;23.75;13.98;;;;;;;18.80;94.57;99544.15;4109348;85;28622;-77
2022/10/16 07:39:38;;;;;;;21.35;14.15;;;;;;;18.83;94.84;99546.31;4116834;84;28564;-77
2022/10/16 07:45:50;;;;;;;17.70;12.35;;;;;;;18.93;93.87;99540.03;4128524;83;28537;-77
2022/10/16 07:51:53;;;;;;;20.57;12.78;;;;;;;18.63;96.28;99546.59;4131449;84;28548;-77
2022/10/16 07:57:55;;;;;;;20.72;13.98;;;;;;;18.85;95.32;99554.19;4136391;85;28541;-77
2022/10/16 08:04:00;;;;;;;20.12;12.60;;;;;;;19.00;92.50;99548.77;4116571;85;28566;-79
2022/10/16 08:10:03;;;;;;;19.75;12.58;;;;;;;19.05;92.31;99560.21;4129697;83;28503;-78
2022/10/16 08:16:07;;;;;;;18.02;11.95;;;;;;;19.31;89.45;99563.70;4145732;84;28535;-80
2022/10/16 08:22:09;;;;;;;23.00;14.53;;;;;;;19.68;86.19;99568.48;4155995;84;28519;-81
2022/10/16 08:28:11;;;;;;;19.55;12.30;;;;;;;19.48;85.84;99577.58;4179311;84;28489;-80
2022/10/16 08:34:14;;;;;;;17.62;11.45;;;;;;;19.92;81.35;99580.94;4161040;84;28564;-81
2022/10/16 08:40:25;;;;;;;16.97;10.48;;;;;;;20.32;78.53;99575.55;4163495;82;28593;-81
2022/10/16 08:46:50;;;;;;;14.35;10.13;;;;;;;20.78;77.44;99583.69;4188816;81;28500;-81
2022/10/16 08:52:52;;;;;;;15.30;8.97;;;;;;;21.45;74.77;99584.43;4192275;83;28562;-79
2022/10/16 08:58:55;;;;;;;15.93;8.80;;;;;;;22.30;70.69;99585.33;4196412;83;28508;-80
2022/10/16 09:05:35;;;;;;;12.80;8.98;;;;;;;22.76;68.80;99582.45;4179492;83;28540;-79
2022/10/16 09:12:06;;;;;;;15.28;9.95;;;;;;;23.30;66.68;99584.83;4185218;83;28492;-80
2022/10/16 09:18:31;;;;;;;11.40;8.55;;;;;;;23.22;67.03;99589.61;4209216;83;28577;-80
2022/10/16 09:24:34;;;;;;;12.63;8.15;;;;;;;23.18;67.39;99589.97;4215251;83;28536;-80
2022/10/16 09:30:35;;;;;;;11.35;7.33;;;;;;;23.59;67.18;99598.83;4216540;83;28984;-80
2022/10/16 09:36:44;;;;;;;10.78;7.42;;;;;;;23.64;65.21;99604.19;4227645;83;28554;-80
2022/10/16 09:42:48;;;;;;;9.90;7.22;;;;;;;23.83;64.96;99603.82;4228111;83;28600;-79
2022/10/16 09:48:54;;;;;;;11.08;7.80;;;;;;;24.32;64.20;99609.69;4183068;83;28521;-80
2022/10/16 09:54:58;;;;;;;9.78;6.70;;;;;;;24.23;63.83;99605.47;4184356;83;28512;-80
2022/10/16 10:01:00;;;;;;;8.20;5.95;;;;;;;24.91;62.34;99603.35;4188663;83;28620;-80
2022/10/16 10:07:01;;;;;;;8.68;6.17;;;;;;;24.99;61.93;99602.59;4188868;83;28540;-80
2022/10/16 10:13:02;;;;;;;8.55;6.50;;;;;;;25.17;61.60;99609.00;4192581;83;28508;-80
2022/10/16 10:19:04;;;;;;;8.95;5.67;;;;;;;25.25;60.95;99601.91;4187357;83;28521;-80
2022/10/16 10:25:17;;;;;;;7.90;5.80;;;;;;;25.40;59.60;99606.19;4179311;83;28453;-79
2022/10/16 10:31:38;;;;;;;10.00;5.83;;;;;;;25.63;59.35;99602.59;4186129;83;28546;-79
2022/10/16 10:38:06;;;;;;;8.15;5.80;;;;;;;25.85;58.80;99603.07;4209200;83;28573;-80
2022/10/16 10:44:30;;;;;;;6.42;5.00;;;;;;;26.01;57.01;99601.47;4204657;82;28934;-79
2022/10/16 10:51:03;;;;;;;6.83;5.28;;;;;;;26.02;55.23;99594.83;4184802;83;28498;-79
2022/10/16 10:57:31;;;;;;;7.37;5.67;;;;;;;25.90;56.65;99589.14;4172142;83;28569;-79
2022/10/16 11:04:04;;;;;;;6.62;5.80;;;;;;;25.73;55.05;99592.66;4187507;83;28540;-79
2022/10/16 11:10:17;;;;;;;8.08;5.53;;;;;;;25.98;56.05;99585.59;4171311;83;28577;-78
2022/10/16 11:16:36;;;;;;;7.72;5.00;;;;;;;26.23;54.59;99587.34;4183671;83;28590;-79
2022/10/16 11:22:45;;;;;;;7.65;5.05;;;;;;;26.65;55.05;99588.79;4191326;83;28561;-79
2022/10/16 11:28:55;;;;;;;6.53;4.95;;;;;;;26.83;53.40;99589.59;4188547;83;28628;-78
2022/10/16 11:35:02;;;;;;;7.30;5.22;;;;;;;26.61;53.83;99581.77;4193407;83;28511;-78
2022/10/16 11:41:18;;;;;;;7.85;5.17;;;;;;;26.64;53.68;99589.37;4192633;83;28573;-79
2022/10/16 11:47:46;;;;;;;7.65;4.87;;;;;;;26.80;53.41;99587.47;4197018;83;28456;-80
2022/10/16 11:53:59;;;;;;;8.70;5.25;;;;;;;26.62;52.02;99583.38;4192182;83;28564;-79
2022/10/16 12:00:06;;;;;;;7.87;5.00;;;;;;;26.56;54.07;99589.63;4232202;83;28526;-79
2022/10/16 12:06:33;;;;;;;5.85;4.90;;;;;;;26.35;53.86;99586.70;4239945;82;28561;-80
2022/10/16 12:12:39;;;;;;;6.97;4.95;;;;;;;26.36;54.53;99601.31;4272597;81;28531;-79
2022/10/16 12:18:46;;;;;;;7.62;5.00;;;;;;;26.10;54.55;99601.50;4232355;83;28719;-84
2022/10/16 12:24:54;;;;;;;9.08;5.03;;;;;;;26.35;53.77;99598.31;4252915;82;28541;-83
2022/10/16 12:31:12;;;;;;;7.78;5.30;;;;;;;26.51;53.68;99598.64;4208556;83;28578;-83
2022/10/16 12:37:31;;;;;;;6.27;4.63;;;;;;;26.33;53.89;99603.31;4142459;82;28606;-84
2022/10/16 12:43:44;;;;;;;7.65;4.33;;;;;;;26.44;52.67;99605.44;4134605;84;28514;-83
2022/10/16 12:49:53;;;;;;;4.72;3.95;;;;;;;26.30;53.86;99600.66;4193075;82;28492;-83
2022/10/16 12:56:15;;;;;;;6.35;4.50;;;;;;;26.43;52.97;99599.68;4160509;83;28603;-83
2022/10/16 13:02:54;;;;;;;8.23;4.35;;;;;;;26.55;53.05;99603.73;4206168;83;28515;-83
2022/10/16 13:09:28;;;;;;;5.78;4.37;;;;;;;26.59;52.97;99615.72;4163571;83;28530;-84
2022/10/16 13:16:15;;;;;;;6.37;4.05;;;;;;;26.54;52.80;99618.66;4198330;83;28519;-84
2022/10/16 13:23:10;;;;;;;5.60;3.92;;;;;;;26.33;52.91;99623.98;4148846;83;28497;-83
2022/10/16 13:29:14;;;;;;;5.30;3.80;;;;;;;26.07;52.66;99637.94;4175830;84;28616;-79
2022/10/16 13:35:27;;;;;;;6.22;4.28;;;;;;;26.05;53.64;99639.41;4145491;83;28520;-80
2022/10/16 13:41:31;;;;;;;5.65;3.77;;;;;;;25.93;54.18;99640.02;4151017;84;28535;-80
2022/10/16 13:47:33;;;;;;;5.72;3.77;;;;;;;25.86;54.65;99639.12;4176732;83;28518;-79
2022/10/16 13:53:35;;;;;;;4.67;3.67;;;;;;;25.88;54.69;99643.73;4162688;83;28554;-83
2022/10/16 13:59:39;;;;;;;4.20;3.70;;;;;;;25.56;55.15;99654.78;4156814;83;28522;-86
2022/10/16 14:05:49;;;;;;;5.33;3.27;;;;;;;25.48;55.70;99668.73;4142363;84;28503;-86
2022/10/16 14:12:03;;;;;;;6.28;3.67;;;;;;;25.28;55.88;99667.89;4149932;84;28518;-87
2022/10/16 14:18:06;;;;;;;6.00;3.90;;;;;;;25.03;56.31;99667.42;4086715;84;28616;-85
2022/10/16 14:24:13;;;;;;;9.28;4.95;;;;;;;24.84;57.13;99671.75;4083950;85;28531;-86
2022/10/16 14:30:20;;;;;;;5.95;4.28;;;;;;;24.98;57.20;99664.78;4088703;85;28582;-88
2022/10/16 14:36:23;;;;;;;5.17;3.70;;;;;;;24.70;57.92;99664.31;4140982;83;28512;-83
2022/10/16 14:42:25;;;;;;;4.95;3.80;;;;;;;24.55;58.14;99663.30;4131975;84;28540;-83
2022/10/16 14:48:29;;;;;;;6.05;4.00;;;;;;;24.30;58.77;99651.75;4139476;83;28548;-83
2022/10/16 14:54:31;;;;;;;5.12;3.77;;;;;;;24.12;59.14;99652.97;4086075;85;29123;-83
2022/10/16 15:00:32;;;;;;;5.83;3.87;;;;;;;23.91;59.54;99652.53;4113113;85;28464;-83
2022/10/16 15:06:34;;;;;;;5.72;4.17;;;;;;;23.71;60.10;99646.91;4136024;85;28536;-82
2022/10/16 15:12:37;;;;;;;5.67;4.08;;;;;;;23.58;60.54;99662.23;4140985;83;28556;-86
2022/10/16 15:18:41;;;;;;;6.43;3.83;;;;;;;23.47;61.57;99665.71;4122103;84;28542;-85
2022/10/16 15:24:43;;;;;;;6.30;4.20;;;;;;;23.47;61.14;99686.30;4133547;84;28468;-86
2022/10/16 15:30:46;;;;;;;6.72;4.30;;;;;;;23.27;61.46;99686.88;4138819;84;28526;-85
2022/10/16 15:36:49;;;;;;;7.00;4.47;;;;;;;23.05;63.03;99688.91;4147664;84;28531;-88
2022/10/16 15:42:52;;;;;;;4.92;4.20;;;;;;;22.83;63.88;99697.19;4136457;84;28501;-79
2022/10/16 15:48:59;;;;;;;8.70;4.15;;;;;;;22.46;64.84;99699.59;4151759;84;28512;-80
2022/10/16 15:55:03;;;;;;;6.87;4.35;;;;;;;22.20;67.29;99700.48;4141591;84;28544;-80
2022/10/16 16:01:18;;;;;;;7.62;4.53;;;;;;;22.00;69.08;99703.72;4147631;84;28553;-79
2022/10/16 16:07:16;;;;;;;9.43;4.47;;;;;;;21.84;70.87;99705.25;4143045;84;28591;-80
2022/10/16 16:13:19;;;;;;;9.90;4.70;;;;;;;21.50;73.94;99709.39;4151968;84;28548;-82
2022/10/16 16:19:23;;;;;;;8.78;4.50;;;;;;;21.26;75.45;99706.05;4129386;83;28505;-82
2022/10/16 16:25:25;;;;;;;8.83;5.50;;;;;;;21.16;75.51;99711.86;4141759;84;28487;-84
2022/10/16 16:31:29;;;;;;;10.35;4.67;;;;;;;20.81;76.16;99723.30;4142131;84;28518;-84
2022/10/16 16:37:34;;;;;;;9.00;5.47;;;;;;;20.78;77.89;99729.34;4183651;84;28631;-83
2022/10/16 16:43:36;;;;;;;8.50;5.35;;;;;;;20.59;78.68;99745.00;4136795;84;28523;-84
2022/10/16 16:49:42;;;;;;;9.40;5.40;;;;;;;20.42;79.72;99747.27;4169451;84;28570;-83
2022/10/16 16:55:41;;;;;;;8.88;5.15;;;;;;;20.26;81.71;99745.97;4202317;83;28523;-84
2022/10/16 17:01:42;;;;;;;10.53;5.20;;;;;;;20.18;83.65;99756.89;4204591;83;28600;-85
2022/10/16 17:07:46;;;;;;;10.75;5.28;;;;;;;20.05;84.69;99757.48;4199372;83;28531;-82
2022/10/16 17:13:53;;;;;;;9.60;5.75;;;;;;;20.04;83.74;99768.94;4080735;85;28544;-84
2022/10/16 17:19:58;;;;;;;10.93;6.00;;;;;;;20.12;82.33;99780.39;4229288;82;28604;-84
2022/10/16 17:26:16;;;;;;;11.18;6.25;;;;;;;19.70;86.45;99787.80;4203891;83;28601;-84
2022/10/16 17:32:23;;;;;;;11.22;6.90;;;;;;;19.49;87.70;99789.98;4201586;82;28538;-90
2022/10/16 17:39:00;;;;;;;13.13;7.33;;;;;;;19.62;86.56;99808.24;4240778;82;28532;-86
2022/10/16 17:44:58;;;;;;;13.18;7.65;;;;;;;19.52;85.92;99817.25;4084071;84;28574;-86
2022/10/16 17:51:07;;;;;;;11.93;7.55;;;;;;;19.55;85.00;99811.25;4178812;84;28545;-84
2022/10/16 17:57:22;;;;;;;13.40;8.33;;;;;;;19.40;85.44;99820.80;4143583;83;28530;-87
2022/10/16 18:03:25;;;;;;;14.35;8.10;;;;;;;19.25;85.80;99816.14;4135710;85;28582;-86
2022/10/16 18:09:35;;;;;;;11.25;7.30;;;;;;;19.31;85.65;99830.86;4133760;85;28516;-85
2022/10/16 18:15:38;;;;;;;15.10;8.05;;;;;;;19.22;86.01;99834.67;4115365;84;28509;-87
2022/10/16 18:21:48;;;;;;;13.93;8.03;;;;;;;19.07;87.44;99839.54;4116722;85;28539;-88
2022/10/16 18:27:50;;;;;;;13.30;7.90;;;;;;;18.79;90.94;99853.01;4080844;85;28535;-84
2022/10/16 18:33:55;;;;;;;13.68;8.00;;;;;;;19.09;89.60;99860.52;4107864;85;28535;-86
2022/10/16 18:40:09;;;;;;;14.83;7.62;;;;;;;18.94;91.15;99866.70;4122520;84;28605;-84
2022/10/16 18:46:21;;;;;;;12.60;7.58;;;;;;;18.88;91.64;99876.50;4113026;85;28509;-84
2022/10/16 18:52:25;;;;;;;16.62;8.63;;;;;;;18.71;92.90;99894.40;4113245;85;28558;-85
2022/10/16 18:58:29;;;;;;;11.70;7.30;;;;;;;18.71;92.90;99894.40;4103400;85;28591;-85
2022/10/16 19:04:30;;;;;;;18.30;11.10;;;;;;;18.59;92.77;99900.04;4098607;85;28538;-86
2022/10/16 19:10:40;;;;;;;13.48;8.38;;;;;;;18.46;93.30;99922.57;4106571;84;28525;-86
2022/10/16 19:16:48;;;;;;;14.58;8.28;;;;;;;18.31;96.86;99927.89;4141793;84;28549;-85
2022/10/16 19:22:57;;;;;;;15.83;8.40;;;;;;;18.34;97.02;99931.48;4098573;84;28496;-84
2022/10/16 19:29:01;;;;;;;16.97;8.65;;;;;;;18.28;95.62;99941.50;4096442;85;28596;-88
2022/10/16 19:35:03;;;;;;;14.75;8.53;;;;;;;18.06;98.60;99955.19;4101120;85;28576;-86
2022/10/16 19:41:13;;;;;;;15.83;8.93;;;;;;;18.04;97.56;99956.80;4172227;83;28530;-84
2022/10/16 19:47:16;;;;;;;14.73;8.90;;;;;;;18.04;96.53;99960.08;4181437;83;28585;-82
2022/10/16 19:53:20;;;;;;;12.35;8.43;;;;;;;18.00;96.89;99966.54;4155326;83;28561;-82
2022/10/16 19:59:23;;;;;;;15.98;8.20;;;;;;;17.92;96.68;99963.75;4129665;83;28510;-85
2022/10/16 20:05:28;;;;;;;15.80;8.35;;;;;;;17.89;95.75;99960.72;4161569;83;28571;-84
2022/10/16 20:11:34;;;;;;;17.80;9.48;;;;;;;17.78;96.41;99970.14;4153979;83;28496;-88
2022/10/16 20:17:40;;;;;;;14.83;8.93;;;;;;;17.73;99.22;99978.23;4210713;81;28510;-87
2022/10/16 20:23:44;;;;;;;15.30;8.65;;;;;;;17.57;99.90;99973.16;4193514;81;28565;-85
2022/10/16 20:29:56;;;;;;;16.75;8.88;;;;;;;17.49;100.00;99977.69;4204287;81;28811;-86
2022/10/16 20:35:58;;;;;;;20.17;9.83;;;;;;;17.61;100.00;99989.80;4226078;81;28566;-86
2022/10/16 20:42:00;;;;;;;15.40;9.33;;;;;;;17.34;100.00;99995.98;4216074;82;28520;-86
2022/10/16 20:48:01;;;;;;;14.35;9.03;;;;;;;17.24;100.00;100006.20;4187410;83;28552;-85
2022/10/16 20:54:07;;;;;;;16.17;9.13;;;;;;;17.39;100.00;100019.17;4210946;81;28575;-86
2022/10/16 21:00:10;;;;;;;16.77;9.10;;;;;;;17.22;100.00;100016.52;4221485;81;28558;-88
2022/10/16 21:06:21;;;;;;;18.32;9.93;;;;;;;17.09;100.00;100020.41;4223958;81;28605;-87
2022/10/16 21:12:30;;;;;;;18.45;10.08;;;;;;;17.02;100.00;100029.27;4212126;80;28531;-88
2022/10/16 21:18:31;;;;;;;15.00;9.13;;;;;;;17.05;100.00;100030.14;4219767;81;28568;-87
2022/10/16 21:24:41;;;;;;;16.62;9.40;;;;;;;17.03;100.00;100032.29;4220314;81;28613;-87
2022/10/16 21:30:59;;;;;;;17.15;9.35;;;;;;;17.03;100.00;100037.72;4198664;82;28557;-86
2022/10/16 21:36:56;;;;;;;13.95;9.15;;;;;;;16.82;100.00;100049.05;4215728;82;28599;-89
2022/10/16 21:43:04;;;;;;;15.38;8.88;;;;;;;16.56;100.00;100054.09;4178569;83;28542;-85
2022/10/16 21:49:16;;;;;;;14.58;9.15;;;;;;;16.58;100.00;100060.61;4159537;84;28532;-83
2022/10/16 21:55:20;;;;;;;14.38;9.50;;;;;;;16.68;100.00;100061.33;4187816;82;28539;-84
2022/10/16 22:01:27;;;;;;;14.28;9.03;;;;;;;16.78;100.00;100077.79;4196192;82;28554;-84
2022/10/16 22:07:35;;;;;;;15.28;9.33;;;;;;;16.62;100.00;100074.52;4199260;82;28464;-84
2022/10/16 22:13:38;;;;;;;19.05;10.32;;;;;;;16.61;100.00;100080.50;4192885;83;28523;-86
2022/10/16 22:19:39;;;;;;;13.45;9.33;;;;;;;16.66;100.00;100089.23;4198310;81;28514;-84
2022/10/16 22:25:41;;;;;;;15.13;9.43;;;;;;;16.33;100.00;100090.84;4205403;83;28545;-83
2022/10/16 22:31:48;;;;;;;18.10;9.58;;;;;;;16.31;100.00;100093.82;4172876;83;28539;-83
2022/10/16 22:37:51;;;;;;;16.50;9.25;;;;;;;16.34;100.00;100097.91;4196456;83;28533;-83
2022/10/16 22:43:53;;;;;;;14.73;9.38;;;;;;;16.44;100.00;100095.39;4188225;83;28502;-84
2022/10/16 22:50:16;;;;;;;18.17;10.75;;;;;;;16.53;100.00;100101.26;4249924;83;28529;-84
2022/10/16 22:56:19;;;;;;;15.43;9.58;;;;;;;16.14;100.00;100106.80;4214146;82;28520;-85
2022/10/16 23:02:29;;;;;;;15.00;9.28;;;;;;;16.62;100.00;100099.80;4191631;83;28592;-83
2022/10/16 23:08:31;;;;;;;13.98;9.20;;;;;;;16.50;100.00;100107.16;4187368;83;28500;-85
2022/10/16 23:14:33;;;;;;;14.83;8.53;;;;;;;16.01;100.00;100107.89;4189807;83;28556;-85
2022/10/16 23:20:42;;;;;;;16.60;9.63;;;;;;;16.20;100.00;100106.36;4192214;83;28490;-85
2022/10/16 23:26:47;;;;;;;13.43;8.85;;;;;;;16.23;100.00;100101.80;4195685;83;28595;-85
2022/10/16 23:32:48;;;;;;;16.87;9.08;;;;;;;16.21;100.00;100106.65;4194488;83;28517;-86
2022/10/16 23:38:50;;;;;;;17.48;9.13;;;;;;;16.17;100.00;100114.44;4195841;83;28518;-84
2022/10/16 23:44:52;;;;;;;13.98;9.48;;;;;;;16.15;100.00;100122.55;4185209;83;28518;-82
2022/10/16 23:50:53;;;;;;;12.75;8.78;;;;;;;15.68;100.00;100132.41;4266105;83;28503;-84
2022/10/16 23:56:55;;;;;;;15.98;9.38;;;;;;;15.77;100.00;100137.48;4235698;83;28506;-84
